sensor_id;sensor_type;location;lat;lon;timestamp;P1;durP1;ratioP1;P2;durP2;ratioP2
65755;SDS011;52489;47.502;18.940;2022-09-16T00:00:49;3.53;;;1.75;;
65755;SDS011;52489;47.502;18.940;2022-09-16T00:01:53;1.33;;;1.23;;
65755;SDS011;52489;47.502;18.940;2022-09-16T00:02:56;3.08;;;1.67;;
65755;SDS011;52489;47.502;18.940;2022-09-16T00:03:59;2.08;;;1.50;;
65755;SDS011;52489;47.502;18.940;2022-09-16T00:05:02;1.58;;;1.48;;
65755;SDS011;52489;47.502;18.940;2022-09-16T00:06:06;1.95;;;1.50;;
65755;SDS011;52489;47.502;18.940;2022-09-16T00:07:18;1.95;;;1.35;;
65755;SDS011;52489;47.502;18.940;2022-09-16T00:08:22;1.58;;;1.30;;
65755;SDS011;52489;47.502;18.940;2022-09-16T00:09:25;1.45;;;1.35;;
65755;SDS011;52489;47.502;18.940;2022-09-16T00:10:27;1.30;;;1.20;;
65755;SDS011;52489;47.502;18.940;2022-09-16T00:11:31;1.55;;;1.40;;
65755;SDS011;52489;47.502;18.940;2022-09-16T00:12:37;1.55;;;1.40;;
65755;SDS011;52489;47.502;18.940;2022-09-16T00:13:41;2.05;;;1.48;;
65755;SDS011;52489;47.502;18.940;2022-09-16T00:14:44;2.53;;;1.25;;
65755;SDS011;52489;47.502;18.940;2022-09-16T00:15:48;2.90;;;1.35;;
65755;SDS011;52489;47.502;18.940;2022-09-16T00:16:54;1.20;;;1.10;;
65755;SDS011;52489;47.502;18.940;2022-09-16T00:17:57;1.60;;;1.45;;
65755;SDS011;52489;47.502;18.940;2022-09-16T00:19:01;1.73;;;1.23;;
65755;SDS011;52489;47.502;18.940;2022-09-16T00:20:05;1.30;;;1.20;;
65755;SDS011;52489;47.502;18.940;2022-09-16T00:21:09;1.50;;;1.40;;
65755;SDS011;52489;47.502;18.940;2022-09-16T00:22:12;1.23;;;1.08;;
65755;SDS011;52489;47.502;18.940;2022-09-16T00:23:15;3.62;;;0.93;;
65755;SDS011;52489;47.502;18.940;2022-09-16T00:24:20;0.90;;;0.90;;
65755;SDS011;52489;47.502;18.940;2022-09-16T00:25:23;1.50;;;1.40;;
65755;SDS011;52489;47.502;18.940;2022-09-16T00:26:26;1.12;;;1.02;;
65755;SDS011;52489;47.502;18.940;2022-09-16T00:27:29;2.35;;;1.20;;
65755;SDS011;52489;47.502;18.940;2022-09-16T00:28:32;1.30;;;1.20;;
65755;SDS011;52489;47.502;18.940;2022-09-16T00:29:35;1.40;;;1.30;;
65755;SDS011;52489;47.502;18.940;2022-09-16T00:30:38;0.95;;;0.93;;
65755;SDS011;52489;47.502;18.940;2022-09-16T00:31:41;2.03;;;1.40;;
65755;SDS011;52489;47.502;18.940;2022-09-16T00:32:47;2.20;;;1.37;;
65755;SDS011;52489;47.502;18.940;2022-09-16T00:33:50;1.95;;;1.40;;
65755;SDS011;52489;47.502;18.940;2022-09-16T00:34:53;1.33;;;1.20;;
65755;SDS011;52489;47.502;18.940;2022-09-16T00:36:09;1.98;;;1.15;;
65755;SDS011;52489;47.502;18.940;2022-09-16T00:37:15;2.00;;;1.52;;
65755;SDS011;52489;47.502;18.940;2022-09-16T00:38:18;1.58;;;1.17;;
65755;SDS011;52489;47.502;18.940;2022-09-16T00:39:21;1.58;;;1.48;;
65755;SDS011;52489;47.502;18.940;2022-09-16T00:40:24;1.75;;;1.37;;
65755;SDS011;52489;47.502;18.940;2022-09-16T00:41:27;1.75;;;1.30;;
65755;SDS011;52489;47.502;18.940;2022-09-16T00:42:35;1.37;;;1.20;;
65755;SDS011;52489;47.502;18.940;2022-09-16T00:44:58;1.10;;;1.00;;
65755;SDS011;52489;47.502;18.940;2022-09-16T00:46:05;1.62;;;1.10;;
65755;SDS011;52489;47.502;18.940;2022-09-16T00:47:08;0.93;;;0.85;;
65755;SDS011;52489;47.502;18.940;2022-09-16T00:48:14;1.30;;;1.20;;
65755;SDS011;52489;47.502;18.940;2022-09-16T00:49:22;1.00;;;1.00;;
65755;SDS011;52489;47.502;18.940;2022-09-16T00:51:48;1.40;;;1.30;;
65755;SDS011;52489;47.502;18.940;2022-09-16T00:52:55;0.93;;;0.93;;
65755;SDS011;52489;47.502;18.940;2022-09-16T00:53:59;0.93;;;0.90;;
65755;SDS011;52489;47.502;18.940;2022-09-16T00:55:07;1.12;;;1.02;;
65755;SDS011;52489;47.502;18.940;2022-09-16T00:56:15;4.10;;;1.30;;
65755;SDS011;52489;47.502;18.940;2022-09-16T00:57:21;1.12;;;1.02;;
65755;SDS011;52489;47.502;18.940;2022-09-16T00:59:40;1.00;;;1.00;;
65755;SDS011;52489;47.502;18.940;2022-09-16T01:00:49;1.92;;;1.10;;
65755;SDS011;52489;47.502;18.940;2022-09-16T01:01:52;3.35;;;1.87;;
65755;SDS011;52489;47.502;18.940;2022-09-16T01:02:58;1.12;;;1.10;;
65755;SDS011;52489;47.502;18.940;2022-09-16T01:04:02;1.20;;;1.00;;
65755;SDS011;52489;47.502;18.940;2022-09-16T01:05:11;3.53;;;1.23;;
65755;SDS011;52489;47.502;18.940;2022-09-16T01:06:18;1.10;;;1.00;;
65755;SDS011;52489;47.502;18.940;2022-09-16T01:08:49;1.20;;;1.10;;
65755;SDS011;52489;47.502;18.940;2022-09-16T01:10:00;1.55;;;1.30;;
65755;SDS011;52489;47.502;18.940;2022-09-16T01:11:03;1.60;;;1.15;;
65755;SDS011;52489;47.502;18.940;2022-09-16T01:12:06;0.85;;;0.85;;
65755;SDS011;52489;47.502;18.940;2022-09-16T01:13:09;1.92;;;1.25;;
65755;SDS011;52489;47.502;18.940;2022-09-16T01:14:15;1.30;;;1.20;;
65755;SDS011;52489;47.502;18.940;2022-09-16T01:16:54;1.52;;;1.33;;
65755;SDS011;52489;47.502;18.940;2022-09-16T01:21:17;1.35;;;1.25;;
65755;SDS011;52489;47.502;18.940;2022-09-16T01:27:51;4.07;;;1.10;;
65755;SDS011;52489;47.502;18.940;2022-09-16T01:31:01;0.95;;;0.90;;
65755;SDS011;52489;47.502;18.940;2022-09-16T01:32:18;4.80;;;1.60;;
65755;SDS011;52489;47.502;18.940;2022-09-16T01:33:30;1.75;;;1.42;;
65755;SDS011;52489;47.502;18.940;2022-09-16T01:36:02;1.02;;;1.02;;
65755;SDS011;52489;47.502;18.940;2022-09-16T01:38:25;1.33;;;1.02;;
65755;SDS011;52489;47.502;18.940;2022-09-16T01:44:20;1.15;;;1.10;;
65755;SDS011;52489;47.502;18.940;2022-09-16T01:45:35;1.20;;;1.20;;
65755;SDS011;52489;47.502;18.940;2022-09-16T01:50:54;7.18;;;1.20;;
65755;SDS011;52489;47.502;18.940;2022-09-16T01:53:26;1.10;;;0.85;;
65755;SDS011;52489;47.502;18.940;2022-09-16T01:54:38;2.70;;;1.30;;
65755;SDS011;52489;47.502;18.940;2022-09-16T01:55:50;1.20;;;1.10;;
65755;SDS011;52489;47.502;18.940;2022-09-16T01:57:09;1.30;;;1.20;;
65755;SDS011;52489;47.502;18.940;2022-09-16T01:58:22;0.90;;;0.88;;
65755;SDS011;52489;47.502;18.940;2022-09-16T01:59:59;1.70;;;1.40;;
65755;SDS011;52489;47.502;18.940;2022-09-16T02:01:11;1.08;;;0.98;;
65755;SDS011;52489;47.502;18.940;2022-09-16T02:02:44;1.58;;;1.25;;
65755;SDS011;52489;47.502;18.940;2022-09-16T02:03:57;3.62;;;1.62;;
65755;SDS011;52489;47.502;18.940;2022-09-16T02:05:06;1.00;;;1.00;;
65755;SDS011;52489;47.502;18.940;2022-09-16T02:06:16;0.95;;;0.93;;
65755;SDS011;52489;47.502;18.940;2022-09-16T02:07:25;1.92;;;1.30;;
65755;SDS011;52489;47.502;18.940;2022-09-16T02:08:50;0.90;;;0.90;;
65755;SDS011;52489;47.502;18.940;2022-09-16T02:10:12;1.10;;;1.00;;
65755;SDS011;52489;47.502;18.940;2022-09-16T02:11:21;2.37;;;0.95;;
65755;SDS011;52489;47.502;18.940;2022-09-16T02:12:30;1.20;;;1.10;;
65755;SDS011;52489;47.502;18.940;2022-09-16T02:13:44;2.25;;;1.02;;
65755;SDS011;52489;47.502;18.940;2022-09-16T02:14:51;1.23;;;1.12;;
65755;SDS011;52489;47.502;18.940;2022-09-16T02:15:59;1.60;;;1.50;;
65755;SDS011;52489;47.502;18.940;2022-09-16T02:17:13;2.20;;;1.62;;
65755;SDS011;52489;47.502;18.940;2022-09-16T02:18:20;1.37;;;1.23;;
65755;SDS011;52489;47.502;18.940;2022-09-16T02:19:33;1.52;;;1.42;;
65755;SDS011;52489;47.502;18.940;2022-09-16T02:20:41;2.58;;;1.70;;
65755;SDS011;52489;47.502;18.940;2022-09-16T02:21:47;1.33;;;1.00;;
65755;SDS011;52489;47.502;18.940;2022-09-16T02:23:03;2.00;;;1.35;;
65755;SDS011;52489;47.502;18.940;2022-09-16T02:24:20;1.27;;;1.17;;
65755;SDS011;52489;47.502;18.940;2022-09-16T02:25:24;1.58;;;1.30;;
65755;SDS011;52489;47.502;18.940;2022-09-16T02:26:34;1.55;;;1.40;;
65755;SDS011;52489;47.502;18.940;2022-09-16T02:27:41;5.57;;;1.90;;
65755;SDS011;52489;47.502;18.940;2022-09-16T02:28:49;3.58;;;1.80;;
65755;SDS011;52489;47.502;18.940;2022-09-16T02:29:59;1.70;;;1.52;;
65755;SDS011;52489;47.502;18.940;2022-09-16T02:31:09;7.32;;;1.52;;
65755;SDS011;52489;47.502;18.940;2022-09-16T02:32:15;2.90;;;1.83;;
65755;SDS011;52489;47.502;18.940;2022-09-16T02:33:22;5.62;;;1.48;;
65755;SDS011;52489;47.502;18.940;2022-09-16T02:34:33;3.17;;;1.58;;
65755;SDS011;52489;47.502;18.940;2022-09-16T02:35:41;3.87;;;1.80;;
65755;SDS011;52489;47.502;18.940;2022-09-16T02:36:50;5.70;;;1.77;;
65755;SDS011;52489;47.502;18.940;2022-09-16T02:38:00;2.15;;;1.60;;
65755;SDS011;52489;47.502;18.940;2022-09-16T02:39:28;1.27;;;1.10;;
65755;SDS011;52489;47.502;18.940;2022-09-16T02:40:51;1.77;;;1.37;;
65755;SDS011;52489;47.502;18.940;2022-09-16T02:41:57;2.78;;;1.60;;
65755;SDS011;52489;47.502;18.940;2022-09-16T02:43:01;12.27;;;1.60;;
65755;SDS011;52489;47.502;18.940;2022-09-16T02:44:05;3.30;;;1.45;;
65755;SDS011;52489;47.502;18.940;2022-09-16T02:45:08;2.55;;;1.75;;
65755;SDS011;52489;47.502;18.940;2022-09-16T02:47:57;4.15;;;1.90;;
65755;SDS011;52489;47.502;18.940;2022-09-16T02:50:26;1.30;;;1.20;;
65755;SDS011;52489;47.502;18.940;2022-09-16T02:53:12;3.00;;;1.92;;
65755;SDS011;52489;47.502;18.940;2022-09-16T02:55:58;2.42;;;1.50;;
65755;SDS011;52489;47.502;18.940;2022-09-16T02:57:08;1.90;;;1.40;;
65755;SDS011;52489;47.502;18.940;2022-09-16T02:58:11;2.15;;;1.60;;
65755;SDS011;52489;47.502;18.940;2022-09-16T02:59:14;2.65;;;1.60;;
65755;SDS011;52489;47.502;18.940;2022-09-16T03:00:18;2.08;;;1.45;;
65755;SDS011;52489;47.502;18.940;2022-09-16T03:01:22;3.28;;;1.70;;
65755;SDS011;52489;47.502;18.940;2022-09-16T03:02:26;2.60;;;1.50;;
65755;SDS011;52489;47.502;18.940;2022-09-16T03:03:29;1.62;;;1.50;;
65755;SDS011;52489;47.502;18.940;2022-09-16T03:04:32;2.15;;;1.35;;
65755;SDS011;52489;47.502;18.940;2022-09-16T03:05:36;2.53;;;1.60;;
65755;SDS011;52489;47.502;18.940;2022-09-16T03:07:03;2.65;;;1.60;;
65755;SDS011;52489;47.502;18.940;2022-09-16T03:08:09;2.85;;;1.90;;
65755;SDS011;52489;47.502;18.940;2022-09-16T03:09:13;3.72;;;1.77;;
65755;SDS011;52489;47.502;18.940;2022-09-16T03:10:17;3.42;;;1.85;;
65755;SDS011;52489;47.502;18.940;2022-09-16T03:11:27;2.62;;;1.58;;
65755;SDS011;52489;47.502;18.940;2022-09-16T03:13:57;3.55;;;2.08;;
65755;SDS011;52489;47.502;18.940;2022-09-16T03:16:49;4.50;;;1.62;;
65755;SDS011;52489;47.502;18.940;2022-09-16T03:18:16;3.92;;;1.50;;
65755;SDS011;52489;47.502;18.940;2022-09-16T03:21:02;2.05;;;1.42;;
65755;SDS011;52489;47.502;18.940;2022-09-16T03:24:01;4.05;;;1.92;;
65755;SDS011;52489;47.502;18.940;2022-09-16T03:26:46;2.80;;;1.70;;
65755;SDS011;52489;47.502;18.940;2022-09-16T03:29:11;1.60;;;1.40;;
65755;SDS011;52489;47.502;18.940;2022-09-16T03:30:21;1.60;;;1.40;;
65755;SDS011;52489;47.502;18.940;2022-09-16T03:35:30;2.40;;;1.73;;
65755;SDS011;52489;47.502;18.940;2022-09-16T03:36:42;3.78;;;1.90;;
65755;SDS011;52489;47.502;18.940;2022-09-16T03:37:49;1.60;;;1.48;;
65755;SDS011;52489;47.502;18.940;2022-09-16T03:38:55;2.55;;;1.87;;
65755;SDS011;52489;47.502;18.940;2022-09-16T03:40:03;2.35;;;1.65;;
65755;SDS011;52489;47.502;18.940;2022-09-16T03:41:12;3.12;;;1.48;;
65755;SDS011;52489;47.502;18.940;2022-09-16T03:42:16;2.75;;;1.90;;
65755;SDS011;52489;47.502;18.940;2022-09-16T03:43:19;2.78;;;2.30;;
65755;SDS011;52489;47.502;18.940;2022-09-16T03:44:29;3.97;;;2.15;;
65755;SDS011;52489;47.502;18.940;2022-09-16T03:45:35;3.50;;;2.03;;
65755;SDS011;52489;47.502;18.940;2022-09-16T03:46:42;3.67;;;2.08;;
65755;SDS011;52489;47.502;18.940;2022-09-16T03:47:45;3.80;;;1.70;;
65755;SDS011;52489;47.502;18.940;2022-09-16T03:48:50;3.95;;;2.33;;
65755;SDS011;52489;47.502;18.940;2022-09-16T03:49:53;5.07;;;2.60;;
65755;SDS011;52489;47.502;18.940;2022-09-16T03:50:56;4.40;;;1.95;;
65755;SDS011;52489;47.502;18.940;2022-09-16T03:51:59;3.47;;;2.53;;
65755;SDS011;52489;47.502;18.940;2022-09-16T03:53:02;2.45;;;2.22;;
65755;SDS011;52489;47.502;18.940;2022-09-16T03:54:05;3.83;;;1.65;;
65755;SDS011;52489;47.502;18.940;2022-09-16T03:55:08;2.92;;;2.12;;
65755;SDS011;52489;47.502;18.940;2022-09-16T03:56:12;3.80;;;2.33;;
65755;SDS011;52489;47.502;18.940;2022-09-16T03:57:15;5.07;;;2.67;;
65755;SDS011;52489;47.502;18.940;2022-09-16T03:58:19;2.47;;;2.05;;
65755;SDS011;52489;47.502;18.940;2022-09-16T03:59:22;3.75;;;2.50;;
65755;SDS011;52489;47.502;18.940;2022-09-16T04:00:25;4.00;;;2.60;;
65755;SDS011;52489;47.502;18.940;2022-09-16T04:01:30;2.12;;;1.70;;
65755;SDS011;52489;47.502;18.940;2022-09-16T04:02:33;3.87;;;2.05;;
65755;SDS011;52489;47.502;18.940;2022-09-16T04:03:37;3.42;;;1.95;;
65755;SDS011;52489;47.502;18.940;2022-09-16T04:04:39;3.47;;;2.12;;
65755;SDS011;52489;47.502;18.940;2022-09-16T04:05:42;3.30;;;1.85;;
65755;SDS011;52489;47.502;18.940;2022-09-16T04:06:45;2.90;;;2.10;;
65755;SDS011;52489;47.502;18.940;2022-09-16T04:07:48;7.45;;;3.03;;
65755;SDS011;52489;47.502;18.940;2022-09-16T04:08:51;4.45;;;2.55;;
65755;SDS011;52489;47.502;18.940;2022-09-16T04:09:55;4.37;;;2.50;;
65755;SDS011;52489;47.502;18.940;2022-09-16T04:11:01;2.97;;;1.80;;
65755;SDS011;52489;47.502;18.940;2022-09-16T04:12:09;2.65;;;1.83;;
65755;SDS011;52489;47.502;18.940;2022-09-16T04:13:12;3.53;;;2.22;;
65755;SDS011;52489;47.502;18.940;2022-09-16T04:14:15;3.22;;;2.00;;
65755;SDS011;52489;47.502;18.940;2022-09-16T04:15:18;3.53;;;2.03;;
65755;SDS011;52489;47.502;18.940;2022-09-16T04:16:21;3.55;;;2.30;;
65755;SDS011;52489;47.502;18.940;2022-09-16T04:17:24;5.30;;;2.00;;
65755;SDS011;52489;47.502;18.940;2022-09-16T04:18:29;4.10;;;1.90;;
65755;SDS011;52489;47.502;18.940;2022-09-16T04:19:32;3.12;;;1.87;;
65755;SDS011;52489;47.502;18.940;2022-09-16T04:20:35;2.85;;;2.00;;
65755;SDS011;52489;47.502;18.940;2022-09-16T04:21:38;5.37;;;2.30;;
65755;SDS011;52489;47.502;18.940;2022-09-16T04:22:41;7.53;;;2.00;;
65755;SDS011;52489;47.502;18.940;2022-09-16T04:23:44;5.53;;;2.58;;
65755;SDS011;52489;47.502;18.940;2022-09-16T04:24:47;3.22;;;1.83;;
65755;SDS011;52489;47.502;18.940;2022-09-16T04:26:00;7.55;;;2.47;;
65755;SDS011;52489;47.502;18.940;2022-09-16T04:27:03;4.03;;;2.15;;
65755;SDS011;52489;47.502;18.940;2022-09-16T04:28:07;3.62;;;1.87;;
65755;SDS011;52489;47.502;18.940;2022-09-16T04:29:10;5.78;;;1.98;;
65755;SDS011;52489;47.502;18.940;2022-09-16T04:30:18;3.78;;;2.08;;
65755;SDS011;52489;47.502;18.940;2022-09-16T04:31:21;4.70;;;2.35;;
65755;SDS011;52489;47.502;18.940;2022-09-16T04:32:24;3.40;;;2.10;;
65755;SDS011;52489;47.502;18.940;2022-09-16T04:33:31;4.05;;;2.00;;
65755;SDS011;52489;47.502;18.940;2022-09-16T04:34:35;7.22;;;2.30;;
65755;SDS011;52489;47.502;18.940;2022-09-16T04:35:38;7.37;;;2.25;;
65755;SDS011;52489;47.502;18.940;2022-09-16T04:36:41;4.45;;;2.22;;
65755;SDS011;52489;47.502;18.940;2022-09-16T04:37:48;5.28;;;2.47;;
65755;SDS011;52489;47.502;18.940;2022-09-16T04:38:51;3.87;;;2.75;;
65755;SDS011;52489;47.502;18.940;2022-09-16T04:39:54;3.65;;;1.80;;
65755;SDS011;52489;47.502;18.940;2022-09-16T04:41:04;3.60;;;2.00;;
65755;SDS011;52489;47.502;18.940;2022-09-16T04:42:09;5.95;;;2.60;;
65755;SDS011;52489;47.502;18.940;2022-09-16T04:43:13;2.92;;;1.80;;
65755;SDS011;52489;47.502;18.940;2022-09-16T04:44:16;4.87;;;3.03;;
65755;SDS011;52489;47.502;18.940;2022-09-16T04:45:19;6.85;;;2.55;;
65755;SDS011;52489;47.502;18.940;2022-09-16T04:46:23;4.15;;;2.30;;
65755;SDS011;52489;47.502;18.940;2022-09-16T04:47:26;6.45;;;2.30;;
65755;SDS011;52489;47.502;18.940;2022-09-16T04:48:30;6.05;;;2.08;;
65755;SDS011;52489;47.502;18.940;2022-09-16T04:49:33;2.90;;;2.00;;
65755;SDS011;52489;47.502;18.940;2022-09-16T04:50:36;3.87;;;1.80;;
65755;SDS011;52489;47.502;18.940;2022-09-16T04:51:39;3.60;;;2.22;;
65755;SDS011;52489;47.502;18.940;2022-09-16T04:52:42;2.92;;;2.20;;
65755;SDS011;52489;47.502;18.940;2022-09-16T04:53:45;4.62;;;2.30;;
65755;SDS011;52489;47.502;18.940;2022-09-16T04:54:49;3.62;;;1.83;;
65755;SDS011;52489;47.502;18.940;2022-09-16T04:56:17;5.03;;;1.98;;
65755;SDS011;52489;47.502;18.940;2022-09-16T04:57:23;6.20;;;2.40;;
65755;SDS011;52489;47.502;18.940;2022-09-16T04:58:27;3.20;;;1.98;;
65755;SDS011;52489;47.502;18.940;2022-09-16T04:59:30;2.15;;;1.75;;
65755;SDS011;52489;47.502;18.940;2022-09-16T05:00:33;3.28;;;1.98;;
65755;SDS011;52489;47.502;18.940;2022-09-16T05:01:37;2.50;;;1.92;;
65755;SDS011;52489;47.502;18.940;2022-09-16T05:02:42;2.83;;;1.80;;
65755;SDS011;52489;47.502;18.940;2022-09-16T05:03:48;3.10;;;2.00;;
65755;SDS011;52489;47.502;18.940;2022-09-16T05:04:53;3.70;;;1.73;;
65755;SDS011;52489;47.502;18.940;2022-09-16T05:06:07;3.83;;;1.77;;
65755;SDS011;52489;47.502;18.940;2022-09-16T05:07:12;2.65;;;1.65;;
65755;SDS011;52489;47.502;18.940;2022-09-16T05:08:15;3.50;;;1.83;;
65755;SDS011;52489;47.502;18.940;2022-09-16T05:09:18;3.47;;;1.92;;
65755;SDS011;52489;47.502;18.940;2022-09-16T05:10:24;2.95;;;1.90;;
65755;SDS011;52489;47.502;18.940;2022-09-16T05:11:28;4.20;;;2.42;;
65755;SDS011;52489;47.502;18.940;2022-09-16T05:12:33;3.72;;;1.92;;
65755;SDS011;52489;47.502;18.940;2022-09-16T05:13:35;2.58;;;1.62;;
65755;SDS011;52489;47.502;18.940;2022-09-16T05:14:39;4.07;;;2.05;;
65755;SDS011;52489;47.502;18.940;2022-09-16T05:15:41;4.50;;;1.75;;
65755;SDS011;52489;47.502;18.940;2022-09-16T05:16:50;3.25;;;2.28;;
65755;SDS011;52489;47.502;18.940;2022-09-16T05:17:53;2.90;;;2.00;;
65755;SDS011;52489;47.502;18.940;2022-09-16T05:18:56;3.35;;;1.90;;
65755;SDS011;52489;47.502;18.940;2022-09-16T05:20:01;2.55;;;1.95;;
65755;SDS011;52489;47.502;18.940;2022-09-16T05:21:06;5.12;;;2.12;;
65755;SDS011;52489;47.502;18.940;2022-09-16T05:22:12;3.90;;;2.65;;
65755;SDS011;52489;47.502;18.940;2022-09-16T05:23:15;3.58;;;2.25;;
65755;SDS011;52489;47.502;18.940;2022-09-16T05:24:17;4.53;;;2.28;;
65755;SDS011;52489;47.502;18.940;2022-09-16T05:25:20;2.62;;;1.65;;
65755;SDS011;52489;47.502;18.940;2022-09-16T05:26:25;5.57;;;1.95;;
65755;SDS011;52489;47.502;18.940;2022-09-16T05:27:30;3.03;;;2.30;;
65755;SDS011;52489;47.502;18.940;2022-09-16T05:28:37;3.37;;;1.90;;
65755;SDS011;52489;47.502;18.940;2022-09-16T05:29:40;2.70;;;1.95;;
65755;SDS011;52489;47.502;18.940;2022-09-16T05:30:44;5.78;;;2.15;;
65755;SDS011;52489;47.502;18.940;2022-09-16T05:31:47;2.80;;;1.60;;
65755;SDS011;52489;47.502;18.940;2022-09-16T05:32:52;6.37;;;2.08;;
65755;SDS011;52489;47.502;18.940;2022-09-16T05:34:00;3.35;;;2.10;;
65755;SDS011;52489;47.502;18.940;2022-09-16T05:35:03;6.30;;;2.50;;
65755;SDS011;52489;47.502;18.940;2022-09-16T05:36:07;4.90;;;2.50;;
65755;SDS011;52489;47.502;18.940;2022-09-16T05:37:12;2.62;;;1.87;;
65755;SDS011;52489;47.502;18.940;2022-09-16T05:38:16;8.43;;;2.10;;
65755;SDS011;52489;47.502;18.940;2022-09-16T05:39:18;3.37;;;2.12;;
65755;SDS011;52489;47.502;18.940;2022-09-16T05:40:25;2.50;;;2.00;;
65755;SDS011;52489;47.502;18.940;2022-09-16T05:41:51;4.35;;;2.00;;
65755;SDS011;52489;47.502;18.940;2022-09-16T05:42:59;2.42;;;1.98;;
65755;SDS011;52489;47.502;18.940;2022-09-16T05:44:01;7.72;;;2.50;;
65755;SDS011;52489;47.502;18.940;2022-09-16T05:45:05;4.37;;;2.00;;
65755;SDS011;52489;47.502;18.940;2022-09-16T05:46:10;4.28;;;1.80;;
65755;SDS011;52489;47.502;18.940;2022-09-16T05:47:19;4.10;;;2.60;;
65755;SDS011;52489;47.502;18.940;2022-09-16T05:48:22;4.25;;;2.17;;
65755;SDS011;52489;47.502;18.940;2022-09-16T05:49:25;3.75;;;1.87;;
65755;SDS011;52489;47.502;18.940;2022-09-16T05:50:28;4.00;;;1.90;;
65755;SDS011;52489;47.502;18.940;2022-09-16T05:51:32;7.95;;;2.17;;
65755;SDS011;52489;47.502;18.940;2022-09-16T05:52:35;4.57;;;2.15;;
65755;SDS011;52489;47.502;18.940;2022-09-16T05:53:38;4.22;;;2.17;;
65755;SDS011;52489;47.502;18.940;2022-09-16T05:54:41;6.25;;;2.92;;
65755;SDS011;52489;47.502;18.940;2022-09-16T05:56:05;7.30;;;2.15;;
65755;SDS011;52489;47.502;18.940;2022-09-16T05:57:08;3.30;;;2.12;;
65755;SDS011;52489;47.502;18.940;2022-09-16T05:58:11;2.87;;;1.92;;
65755;SDS011;52489;47.502;18.940;2022-09-16T05:59:15;6.25;;;2.55;;
65755;SDS011;52489;47.502;18.940;2022-09-16T06:00:18;6.03;;;2.30;;
65755;SDS011;52489;47.502;18.940;2022-09-16T06:01:22;3.58;;;2.03;;
65755;SDS011;52489;47.502;18.940;2022-09-16T06:02:29;5.10;;;2.67;;
65755;SDS011;52489;47.502;18.940;2022-09-16T06:03:32;4.07;;;1.92;;
65755;SDS011;52489;47.502;18.940;2022-09-16T06:04:36;3.10;;;2.22;;
65755;SDS011;52489;47.502;18.940;2022-09-16T06:05:39;2.97;;;1.98;;
65755;SDS011;52489;47.502;18.940;2022-09-16T06:06:47;4.22;;;2.37;;
65755;SDS011;52489;47.502;18.940;2022-09-16T06:07:50;4.18;;;2.40;;
65755;SDS011;52489;47.502;18.940;2022-09-16T06:08:58;3.75;;;2.05;;
65755;SDS011;52489;47.502;18.940;2022-09-16T06:10:13;5.00;;;2.25;;
65755;SDS011;52489;47.502;18.940;2022-09-16T06:11:16;3.80;;;1.95;;
65755;SDS011;52489;47.502;18.940;2022-09-16T06:12:19;2.50;;;1.50;;
65755;SDS011;52489;47.502;18.940;2022-09-16T06:13:22;2.70;;;2.08;;
65755;SDS011;52489;47.502;18.940;2022-09-16T06:14:24;5.37;;;2.15;;
65755;SDS011;52489;47.502;18.940;2022-09-16T06:15:27;4.55;;;2.42;;
65755;SDS011;52489;47.502;18.940;2022-09-16T06:16:31;6.47;;;2.60;;
65755;SDS011;52489;47.502;18.940;2022-09-16T06:17:34;3.40;;;2.22;;
65755;SDS011;52489;47.502;18.940;2022-09-16T06:18:37;5.65;;;2.35;;
65755;SDS011;52489;47.502;18.940;2022-09-16T06:19:40;3.58;;;2.00;;
65755;SDS011;52489;47.502;18.940;2022-09-16T06:20:43;9.15;;;2.20;;
65755;SDS011;52489;47.502;18.940;2022-09-16T06:21:47;4.78;;;2.70;;
65755;SDS011;52489;47.502;18.940;2022-09-16T06:22:50;2.90;;;2.00;;
65755;SDS011;52489;47.502;18.940;2022-09-16T06:23:54;7.03;;;2.50;;
65755;SDS011;52489;47.502;18.940;2022-09-16T06:24:57;3.92;;;2.10;;
65755;SDS011;52489;47.502;18.940;2022-09-16T06:26:01;2.40;;;1.62;;
65755;SDS011;52489;47.502;18.940;2022-09-16T06:27:09;3.55;;;2.22;;
65755;SDS011;52489;47.502;18.940;2022-09-16T06:28:15;3.22;;;2.30;;
65755;SDS011;52489;47.502;18.940;2022-09-16T06:29:18;5.55;;;2.53;;
65755;SDS011;52489;47.502;18.940;2022-09-16T06:30:21;5.93;;;2.12;;
65755;SDS011;52489;47.502;18.940;2022-09-16T06:31:25;5.90;;;2.30;;
65755;SDS011;52489;47.502;18.940;2022-09-16T06:32:30;4.60;;;1.98;;
65755;SDS011;52489;47.502;18.940;2022-09-16T06:33:34;3.58;;;2.20;;
65755;SDS011;52489;47.502;18.940;2022-09-16T06:34:37;4.32;;;2.67;;
65755;SDS011;52489;47.502;18.940;2022-09-16T06:35:40;4.22;;;1.83;;
65755;SDS011;52489;47.502;18.940;2022-09-16T06:36:43;4.20;;;2.20;;
65755;SDS011;52489;47.502;18.940;2022-09-16T06:37:46;3.08;;;2.22;;
65755;SDS011;52489;47.502;18.940;2022-09-16T06:38:49;3.70;;;2.20;;
65755;SDS011;52489;47.502;18.940;2022-09-16T06:39:52;8.07;;;2.22;;
65755;SDS011;52489;47.502;18.940;2022-09-16T06:40:59;3.55;;;1.90;;
65755;SDS011;52489;47.502;18.940;2022-09-16T06:42:05;4.72;;;2.20;;
65755;SDS011;52489;47.502;18.940;2022-09-16T06:43:09;2.80;;;2.00;;
65755;SDS011;52489;47.502;18.940;2022-09-16T06:44:12;2.87;;;2.12;;
65755;SDS011;52489;47.502;18.940;2022-09-16T06:45:15;3.78;;;1.83;;
65755;SDS011;52489;47.502;18.940;2022-09-16T06:46:19;4.37;;;1.95;;
65755;SDS011;52489;47.502;18.940;2022-09-16T06:47:26;5.30;;;2.15;;
65755;SDS011;52489;47.502;18.940;2022-09-16T06:48:30;3.65;;;1.90;;
65755;SDS011;52489;47.502;18.940;2022-09-16T06:49:35;2.60;;;2.00;;
65755;SDS011;52489;47.502;18.940;2022-09-16T06:50:38;3.95;;;2.03;;
65755;SDS011;52489;47.502;18.940;2022-09-16T06:51:41;2.90;;;1.85;;
65755;SDS011;52489;47.502;18.940;2022-09-16T06:52:44;6.85;;;2.20;;
65755;SDS011;52489;47.502;18.940;2022-09-16T06:53:53;4.90;;;2.35;;
65755;SDS011;52489;47.502;18.940;2022-09-16T06:55:00;4.47;;;2.12;;
65755;SDS011;52489;47.502;18.940;2022-09-16T06:56:04;3.03;;;2.05;;
65755;SDS011;52489;47.502;18.940;2022-09-16T06:57:10;3.80;;;2.08;;
65755;SDS011;52489;47.502;18.940;2022-09-16T06:58:13;4.53;;;2.25;;
65755;SDS011;52489;47.502;18.940;2022-09-16T06:59:16;4.03;;;2.20;;
65755;SDS011;52489;47.502;18.940;2022-09-16T07:00:19;4.22;;;2.05;;
65755;SDS011;52489;47.502;18.940;2022-09-16T07:01:23;3.70;;;2.42;;
65755;SDS011;52489;47.502;18.940;2022-09-16T07:02:29;2.70;;;2.00;;
65755;SDS011;52489;47.502;18.940;2022-09-16T07:03:33;3.08;;;2.28;;
65755;SDS011;52489;47.502;18.940;2022-09-16T07:04:39;4.12;;;2.30;;
65755;SDS011;52489;47.502;18.940;2022-09-16T07:05:42;3.78;;;2.20;;
65755;SDS011;52489;47.502;18.940;2022-09-16T07:06:45;4.72;;;2.37;;
65755;SDS011;52489;47.502;18.940;2022-09-16T07:08:09;2.47;;;1.77;;
65755;SDS011;52489;47.502;18.940;2022-09-16T07:09:12;3.67;;;1.83;;
65755;SDS011;52489;47.502;18.940;2022-09-16T07:10:15;5.43;;;2.58;;
65755;SDS011;52489;47.502;18.940;2022-09-16T07:11:19;2.75;;;1.95;;
65755;SDS011;52489;47.502;18.940;2022-09-16T07:12:26;5.70;;;2.25;;
65755;SDS011;52489;47.502;18.940;2022-09-16T07:13:30;2.45;;;1.83;;
65755;SDS011;52489;47.502;18.940;2022-09-16T07:14:32;3.87;;;1.90;;
65755;SDS011;52489;47.502;18.940;2022-09-16T07:15:35;3.05;;;1.90;;
65755;SDS011;52489;47.502;18.940;2022-09-16T07:16:59;3.25;;;2.05;;
65755;SDS011;52489;47.502;18.940;2022-09-16T07:18:02;2.85;;;2.10;;
65755;SDS011;52489;47.502;18.940;2022-09-16T07:19:05;4.93;;;2.72;;
65755;SDS011;52489;47.502;18.940;2022-09-16T07:20:08;3.58;;;1.80;;
65755;SDS011;52489;47.502;18.940;2022-09-16T07:21:12;2.65;;;1.87;;
65755;SDS011;52489;47.502;18.940;2022-09-16T07:22:17;3.53;;;2.00;;